createdAt,value
2023-02-23T00:00:27.755Z,67.83
2023-02-23T00:04:30.989Z,71.37
2023-02-23T00:08:36.107Z,83.17
2023-02-23T00:12:39.745Z,81.57
2023-02-23T00:16:45.407Z,83.53
2023-02-23T00:20:57.640Z,73.07
2023-02-23T00:25:03.231Z,82.37
2023-02-23T00:29:10.521Z,80.60
2023-02-23T00:33:14.027Z,73.60
2023-02-23T00:37:17.596Z,72.17
2023-02-23T00:41:24.111Z,79.67
2023-02-23T00:45:27.140Z,77.10
2023-02-23T00:49:30.101Z,76.27
2023-02-23T00:53:33.938Z,80.70
2023-02-23T00:57:38.519Z,77.10
2023-02-23T01:01:42.777Z,79.97
2023-02-23T01:05:49.815Z,76.70
2023-02-23T01:09:52.998Z,70.57
2023-02-23T01:13:59.201Z,67.93
2023-02-23T01:18:02.472Z,61.90
2023-02-23T01:22:05.695Z,66.77
2023-02-23T01:26:16.320Z,68.43
2023-02-23T01:30:20.767Z,65.20
2023-02-23T01:34:23.879Z,66.17
2023-02-23T01:38:26.850Z,77.23
2023-02-23T01:42:29.898Z,63.60
2023-02-23T01:46:36.417Z,66.97
2023-02-23T01:50:49.388Z,64.73
2023-02-23T01:54:56.726Z,64.80
2023-02-23T01:59:04.089Z,85.90
2023-02-23T02:03:15.718Z,63.20
2023-02-23T02:07:23.581Z,69.20
2023-02-23T02:11:30.805Z,65.00
2023-02-23T02:15:38.788Z,74.90
2023-02-23T02:20:14.855Z,71.10
2023-02-23T02:24:38.606Z,70.10
2023-02-23T02:29:10.041Z,62.87
2023-02-23T02:33:58.564Z,69.03
2023-02-23T02:38:17.380Z,82.37
2023-02-23T02:42:29.616Z,79.67
2023-02-23T02:46:38.581Z,73.73
2023-02-23T02:50:47.843Z,82.70
2023-02-23T02:54:54.662Z,86.73
2023-02-23T02:58:59.813Z,82.57
2023-02-23T03:03:20.575Z,85.47
2023-02-23T03:07:47.901Z,74.60
2023-02-23T03:12:20.481Z,87.63
2023-02-23T03:16:46.395Z,68.00
2023-02-23T03:21:12.577Z,74.97
2023-02-23T03:25:41.387Z,87.10
2023-02-23T03:30:11.762Z,81.07
2023-02-23T03:34:36.053Z,84.63
2023-02-23T03:39:04.696Z,83.60
2023-02-23T03:43:30.040Z,79.33
2023-02-23T03:47:56.553Z,66.10
2023-02-23T03:52:24.147Z,80.43
2023-02-23T03:56:46.402Z,66.43
2023-02-23T04:01:09.102Z,64.10
2023-02-23T04:05:36.272Z,75.33
2023-02-23T04:09:57.348Z,81.70
2023-02-23T04:14:04.570Z,80.33
2023-02-23T04:18:13.391Z,81.57
2023-02-23T04:22:17.746Z,74.37
2023-02-23T04:26:20.676Z,79.13
2023-02-23T04:30:25.717Z,80.50
2023-02-23T04:34:29.045Z,77.47
2023-02-23T04:38:33.465Z,80.37
2023-02-23T04:42:36.779Z,81.97
2023-02-23T04:46:39.907Z,79.20
2023-02-23T04:50:42.903Z,79.17
2023-02-23T04:54:48.162Z,76.90
2023-02-23T04:58:51.319Z,77.03
2023-02-23T05:02:54.508Z,79.77
2023-02-23T05:06:57.395Z,80.20
2023-02-23T05:11:01.710Z,74.43
2023-02-23T05:15:05.783Z,76.67
2023-02-23T05:19:09.451Z,81.97
2023-02-23T05:23:13.130Z,82.63
2023-02-23T05:27:17.792Z,81.90
2023-02-23T05:31:21.588Z,79.60
2023-02-23T05:35:24.775Z,90.90
2023-02-23T05:39:27.778Z,79.77
2023-02-23T05:43:32.115Z,78.13
2023-02-23T05:47:38.573Z,83.97
2023-02-23T05:51:43.078Z,88.07
2023-02-23T05:55:46.163Z,87.93
2023-02-23T06:00:06.097Z,84.03
2023-02-23T06:04:08.968Z,91.70
2023-02-23T06:08:12.790Z,91.93
2023-02-23T06:12:17.031Z,89.37
2023-02-23T06:16:21.809Z,423.95
2023-02-23T06:20:24.739Z,126.43
2023-02-23T06:24:27.896Z,96.23
2023-02-23T06:28:31.303Z,78.50
2023-02-23T06:32:35.780Z,95.93
2023-02-23T06:36:41.071Z,92.00
2023-02-23T06:40:44.232Z,88.73
2023-02-23T06:44:47.318Z,99.20
2023-02-23T06:48:55.867Z,87.83
2023-02-23T06:52:58.921Z,81.33
2023-02-23T06:57:02.305Z,95.43
2023-02-23T07:01:06.434Z,95.13
2023-02-23T07:05:11.395Z,97.50
2023-02-23T07:09:15.498Z,108.33
2023-02-23T07:13:20.439Z,90.47
2023-02-23T07:17:23.971Z,78.23
2023-02-23T07:21:28.303Z,78.30
2023-02-23T07:25:32.140Z,76.23
2023-02-23T07:29:35.057Z,65.40
2023-02-23T07:33:38.357Z,86.87
2023-02-23T07:37:43.171Z,72.73
2023-02-23T07:41:46.780Z,67.77
2023-02-23T07:45:55.094Z,71.00
2023-02-23T07:49:59.774Z,58.10
2023-02-23T07:54:05.838Z,59.67
2023-02-23T07:58:09.726Z,62.23
2023-02-23T08:02:16.435Z,60.23
2023-02-23T08:06:20.703Z,56.73
2023-02-23T08:10:25.162Z,129.70
2023-02-23T08:14:28.347Z,63.23
2023-02-23T08:18:31.350Z,57.37
2023-02-23T08:22:48.407Z,52.33
2023-02-23T08:26:54.626Z,55.40
2023-02-23T08:30:59.274Z,54.60
2023-02-23T08:35:03.198Z,52.47
2023-02-23T08:39:07.379Z,49.53
2023-02-23T08:43:11.797Z,56.50
2023-02-23T08:47:16.665Z,51.20
2023-02-23T08:51:20.330Z,47.93
2023-02-23T08:55:23.956Z,45.33
2023-02-23T08:59:28.414Z,49.93
2023-02-23T09:03:31.585Z,45.97
2023-02-23T09:07:34.608Z,42.30
2023-02-23T09:11:37.570Z,48.77
2023-02-23T09:15:42.760Z,58.77
2023-02-23T09:19:45.688Z,49.43
2023-02-23T09:23:51.213Z,52.87
2023-02-23T09:27:57.004Z,56.63
2023-02-23T09:32:01.443Z,59.67
2023-02-23T09:36:09.467Z,63.33
2023-02-23T09:40:16.263Z,55.23
2023-02-23T09:44:27.509Z,47.37
2023-02-23T09:48:35.779Z,54.80
2023-02-23T09:52:42.741Z,58.77
2023-02-23T09:56:48.706Z,47.57
2023-02-23T10:01:00.348Z,50.47
2023-02-23T10:05:09.590Z,50.07
2023-02-23T10:09:23.310Z,46.37
2023-02-23T10:13:38.384Z,43.37
2023-02-23T10:17:50.105Z,45.93
2023-02-23T10:21:58.212Z,40.13
2023-02-23T10:26:03.266Z,45.27
2023-02-23T10:30:18.858Z,48.00
2023-02-23T10:34:23.692Z,47.67
2023-02-23T10:38:28.658Z,43.00
2023-02-23T10:42:32.094Z,45.20
2023-02-23T10:46:39.346Z,47.57
2023-02-23T10:50:43.856Z,41.23
2023-02-23T10:54:50.037Z,41.33
2023-02-23T10:58:56.121Z,41.30
2023-02-23T11:03:00.020Z,44.83
2023-02-23T11:07:16.420Z,42.77
2023-02-23T11:11:27.473Z,42.87
2023-02-23T11:15:49.263Z,38.93
2023-02-23T11:20:01.758Z,37.23
2023-02-23T11:24:14.614Z,40.30
2023-02-23T11:28:22.246Z,38.63
2023-02-23T11:32:30.915Z,37.40
2023-02-23T11:36:36.380Z,39.87
2023-02-23T11:40:42.853Z,37.23
2023-02-23T11:44:53.222Z,38.77
2023-02-23T11:49:00.738Z,32.17
2023-02-23T11:53:06.832Z,31.67
2023-02-23T11:57:09.778Z,32.97
2023-02-23T12:01:18.713Z,34.17
2023-02-23T12:05:27.304Z,36.63
2023-02-23T12:09:35.170Z,40.40
2023-02-23T12:13:43.251Z,38.50
2023-02-23T12:17:53.050Z,36.17
2023-02-23T12:22:03.579Z,37.33
2023-02-23T12:26:14.041Z,38.87
2023-02-23T12:30:21.061Z,34.43
2023-02-23T12:34:30.893Z,37.87
2023-02-23T12:38:45.282Z,38.27
2023-02-23T12:42:59.816Z,40.93
2023-02-23T12:47:09.077Z,40.90
2023-02-23T12:51:22.073Z,41.70
2023-02-23T12:55:38.332Z,41.20
2023-02-23T13:00:10.236Z,42.80
2023-02-23T13:04:36.911Z,37.70
2023-02-23T13:09:03.605Z,38.27
2023-02-23T13:13:21.661Z,37.60
2023-02-23T13:17:39.882Z,31.40
2023-02-23T13:21:50.331Z,45.80
2023-02-23T13:26:01.640Z,37.80
2023-02-23T13:30:10.385Z,33.43
2023-02-23T13:34:22.363Z,40.10
2023-02-23T13:38:33.679Z,38.00
2023-02-23T13:43:00.043Z,39.03
2023-02-23T13:47:12.816Z,39.23
2023-02-23T13:51:22.079Z,43.93
2023-02-23T13:55:50.369Z,40.60
2023-02-23T13:59:55.843Z,40.70
2023-02-23T14:04:00.818Z,40.27
2023-02-23T14:08:06.440Z,37.80
2023-02-23T14:12:19.379Z,34.97
2023-02-23T14:16:23.909Z,33.27
2023-02-23T14:20:53.441Z,33.40
2023-02-23T14:25:30.999Z,29.47
2023-02-23T14:29:40.952Z,29.23
2023-02-23T14:33:57.875Z,26.67
2023-02-23T14:38:02.799Z,33.87
2023-02-23T14:42:08.297Z,37.30
2023-02-23T14:46:20.634Z,33.77
2023-02-23T14:50:29.323Z,36.13
2023-02-23T14:54:34.416Z,33.20
2023-02-23T14:58:37.581Z,35.23
2023-02-23T15:02:53.660Z,35.83
2023-02-23T15:07:02.625Z,33.43
2023-02-23T15:11:12.066Z,34.17
2023-02-23T15:15:20.448Z,34.87
2023-02-23T15:19:34.430Z,40.10
2023-02-23T15:23:39.145Z,31.93
2023-02-23T15:27:45.294Z,32.23
2023-02-23T15:31:53.654Z,33.10
2023-02-23T15:36:05.892Z,36.60
2023-02-23T15:40:15.861Z,37.33
2023-02-23T15:44:24.272Z,34.00
2023-02-23T15:48:39.509Z,40.17
2023-02-23T15:52:48.304Z,38.70
2023-02-23T15:56:58.077Z,36.73
2023-02-23T16:01:05.938Z,38.60
2023-02-23T16:05:21.068Z,41.47
2023-02-23T16:09:29.879Z,42.77
2023-02-23T16:13:34.533Z,42.63
2023-02-23T16:17:44.645Z,45.47
2023-02-23T16:21:53.722Z,42.40
2023-02-23T16:26:01.360Z,47.70
2023-02-23T16:30:19.698Z,44.97
2023-02-23T16:34:27.196Z,46.47
2023-02-23T16:38:36.379Z,50.00
2023-02-23T16:42:40.435Z,44.10
2023-02-23T16:47:32.933Z,49.27
2023-02-23T16:51:37.511Z,44.67
2023-02-23T16:55:44.338Z,48.73
2023-02-23T16:59:50.566Z,56.13
2023-02-23T17:03:54.878Z,48.43
2023-02-23T17:07:59.298Z,47.33
2023-02-23T17:12:02.272Z,50.50
2023-02-23T17:16:09.055Z,50.80
2023-02-23T17:20:21.640Z,52.93
2023-02-23T17:24:26.180Z,45.37
2023-02-23T17:28:29.252Z,28.03
2023-02-23T17:32:33.020Z,21.77
2023-02-23T17:36:37.602Z,12.73
2023-02-23T17:40:40.729Z,16.53
2023-02-23T17:44:44.686Z,16.57
2023-02-23T17:48:47.791Z,13.63
2023-02-23T17:52:52.608Z,11.97
2023-02-23T17:56:55.496Z,13.63
2023-02-23T18:01:00.574Z,10.03
2023-02-23T18:05:04.305Z,12.30
2023-02-23T18:09:09.219Z,11.10
2023-02-23T18:13:12.980Z,13.60
2023-02-23T18:17:37.117Z,15.93
2023-02-23T18:21:41.575Z,14.23
2023-02-23T18:25:46.491Z,16.33
2023-02-23T18:29:49.531Z,27.50
2023-02-23T18:33:53.684Z,16.77
2023-02-23T18:37:56.919Z,17.80
2023-02-23T18:42:02.812Z,18.60
2023-02-23T18:46:06.830Z,17.40
2023-02-23T18:50:12.771Z,22.00
2023-02-23T18:54:18.542Z,19.00
2023-02-23T18:58:22.994Z,16.70
2023-02-23T19:02:30.100Z,15.70
2023-02-23T19:06:37.393Z,18.33
2023-02-23T19:10:41.530Z,17.67
2023-02-23T19:14:49.755Z,17.67
2023-02-23T19:19:00.427Z,27.80
2023-02-23T19:23:08.066Z,18.17
2023-02-23T19:27:22.501Z,25.10
2023-02-23T19:31:32.200Z,27.47
2023-02-23T19:35:36.193Z,21.53
2023-02-23T19:39:40.857Z,23.13
2023-02-23T19:43:44.444Z,18.37
2023-02-23T19:47:48.772Z,22.30
2023-02-23T19:51:54.078Z,22.17
2023-02-23T19:56:03.231Z,23.47
2023-02-23T20:00:12.058Z,21.63
2023-02-23T20:04:16.479Z,17.97
2023-02-23T20:08:19.798Z,18.47
2023-02-23T20:12:23.736Z,17.27
2023-02-23T20:16:29.556Z,21.53
2023-02-23T20:20:35.895Z,16.80
2023-02-23T20:24:40.104Z,25.93
2023-02-23T20:28:43.830Z,26.93
2023-02-23T20:32:47.236Z,24.00
2023-02-23T20:36:51.715Z,19.73
2023-02-23T20:40:54.884Z,16.93
2023-02-23T20:44:58.470Z,20.00
2023-02-23T20:49:18.652Z,20.37
2023-02-23T20:53:40.945Z,18.43
2023-02-23T20:57:56.375Z,25.93
2023-02-23T21:02:04.033Z,21.77
2023-02-23T21:06:08.157Z,17.13
2023-02-23T21:10:13.907Z,16.73
2023-02-23T21:14:18.009Z,21.67
2023-02-23T21:18:31.593Z,18.57
2023-02-23T21:22:40.985Z,16.67
2023-02-23T21:26:45.596Z,24.07
2023-02-23T21:30:49.185Z,18.50
2023-02-23T21:34:53.552Z,20.37
2023-02-23T21:38:57.331Z,26.40
2023-02-23T21:43:16.362Z,17.87
2023-02-23T21:47:36.340Z,17.83
2023-02-23T21:51:55.153Z,17.40
2023-02-23T21:55:59.815Z,19.33
2023-02-23T22:00:08.267Z,24.97
2023-02-23T22:04:16.240Z,19.63
2023-02-23T22:08:19.050Z,17.17
2023-02-23T22:12:22.352Z,15.70
2023-02-23T22:16:32.235Z,14.93
2023-02-23T22:20:35.153Z,18.87
2023-02-23T22:24:38.978Z,18.63
2023-02-23T22:28:42.678Z,10.77
2023-02-23T22:32:47.612Z,22.97
2023-02-23T22:36:52.649Z,23.27
2023-02-23T22:41:05.395Z,14.63
2023-02-23T22:45:10.755Z,17.60
2023-02-23T22:49:19.729Z,18.33
2023-02-23T22:53:24.833Z,11.10
2023-02-23T22:57:27.924Z,18.37
2023-02-23T23:01:30.934Z,10.27
2023-02-23T23:05:35.528Z,20.80
2023-02-23T23:09:39.900Z,15.17
2023-02-23T23:13:44.586Z,15.77
2023-02-23T23:17:49.171Z,16.70
2023-02-23T23:21:56.071Z,15.77
2023-02-23T23:25:59.998Z,11.83
2023-02-23T23:30:05.745Z,10.40
2023-02-23T23:34:11.300Z,16.50
2023-02-23T23:38:17.275Z,11.27
2023-02-23T23:42:20.259Z,10.67
2023-02-23T23:46:26.696Z,10.07
2023-02-23T23:50:30.826Z,13.03
2023-02-23T23:54:38.895Z,13.77
2023-02-23T23:58:42.590Z,14.03
